sensor_id;sensor_type;location;lat;lon;timestamp;pressure;altitude;pressure_sealevel;temperature;humidity
77778;BME280;66966;-34.746;138.604;2023-02-01T00:01:17;100983.57;;;23.34;29.86
77778;BME280;66966;-34.746;138.604;2023-02-01T00:03:42;100989.75;;;23.19;30.01
77778;BME280;66966;-34.746;138.604;2023-02-01T00:06:07;100993.46;;;23.40;30.19
77778;BME280;66966;-34.746;138.604;2023-02-01T00:08:33;100995.40;;;23.04;30.68
77778;BME280;66966;-34.746;138.604;2023-02-01T00:11:01;100998.63;;;23.24;31.50
77778;BME280;66966;-34.746;138.604;2023-02-01T00:13:23;100997.51;;;23.20;31.83
77778;BME280;66966;-34.746;138.604;2023-02-01T00:15:49;100997.48;;;22.98;32.26
77778;BME280;66966;-34.746;138.604;2023-02-01T00:18:14;100993.48;;;22.84;32.43
77778;BME280;66966;-34.746;138.604;2023-02-01T00:20:39;100991.73;;;22.97;32.38
77778;BME280;66966;-34.746;138.604;2023-02-01T00:23:05;100988.21;;;22.95;32.78
77778;BME280;66966;-34.746;138.604;2023-02-01T00:25:31;100988.84;;;22.88;33.02
77778;BME280;66966;-34.746;138.604;2023-02-01T00:27:55;100986.25;;;22.99;33.37
77778;BME280;66966;-34.746;138.604;2023-02-01T00:30:21;100987.04;;;23.00;33.51
77778;BME280;66966;-34.746;138.604;2023-02-01T00:32:46;100982.10;;;22.79;33.54
77778;BME280;66966;-34.746;138.604;2023-02-01T00:35:12;100979.21;;;22.87;33.94
77778;BME280;66966;-34.746;138.604;2023-02-01T00:37:37;100980.61;;;23.01;33.75
77778;BME280;66966;-34.746;138.604;2023-02-01T00:40:02;100977.59;;;23.18;33.65
77778;BME280;66966;-34.746;138.604;2023-02-01T00:42:27;100975.84;;;23.05;34.21
77778;BME280;66966;-34.746;138.604;2023-02-01T00:44:53;100973.78;;;23.11;34.54
77778;BME280;66966;-34.746;138.604;2023-02-01T00:47:18;100975.06;;;22.67;35.39
77778;BME280;66966;-34.746;138.604;2023-02-01T00:49:43;100976.62;;;22.35;35.82
77778;BME280;66966;-34.746;138.604;2023-02-01T00:52:09;100978.36;;;22.34;36.73
77778;BME280;66966;-34.746;138.604;2023-02-01T00:54:34;100977.06;;;22.41;37.23
77778;BME280;66966;-34.746;138.604;2023-02-01T00:56:59;100975.63;;;21.90;37.60
77778;BME280;66966;-34.746;138.604;2023-02-01T00:59:25;100976.48;;;21.82;37.87
77778;BME280;66966;-34.746;138.604;2023-02-01T01:01:50;100977.21;;;21.61;38.21
77778;BME280;66966;-34.746;138.604;2023-02-01T01:04:15;100978.16;;;21.61;38.31
77778;BME280;66966;-34.746;138.604;2023-02-01T01:06:41;100977.95;;;21.65;38.32
77778;BME280;66966;-34.746;138.604;2023-02-01T01:09:07;100981.90;;;21.47;39.02
77778;BME280;66966;-34.746;138.604;2023-02-01T01:11:34;100984.47;;;22.07;39.50
77778;BME280;66966;-34.746;138.604;2023-02-01T01:13:59;100981.36;;;21.74;39.44
77778;BME280;66966;-34.746;138.604;2023-02-01T01:16:24;100979.17;;;21.61;39.86
77778;BME280;66966;-34.746;138.604;2023-02-01T01:18:48;100975.28;;;21.85;39.24
77778;BME280;66966;-34.746;138.604;2023-02-01T01:21:15;100968.91;;;21.96;39.40
77778;BME280;66966;-34.746;138.604;2023-02-01T01:23:39;100965.79;;;22.26;39.27
77778;BME280;66966;-34.746;138.604;2023-02-01T01:26:07;100966.33;;;21.59;38.68
77778;BME280;66966;-34.746;138.604;2023-02-01T01:28:29;100961.05;;;21.88;38.67
77778;BME280;66966;-34.746;138.604;2023-02-01T01:30:54;100957.63;;;22.01;39.32
77778;BME280;66966;-34.746;138.604;2023-02-01T01:33:20;100950.41;;;21.73;38.45
77778;BME280;66966;-34.746;138.604;2023-02-01T01:35:46;100947.80;;;22.28;38.37
77778;BME280;66966;-34.746;138.604;2023-02-01T01:38:11;100947.18;;;22.22;37.37
77778;BME280;66966;-34.746;138.604;2023-02-01T01:40:36;100941.20;;;22.37;35.96
77778;BME280;66966;-34.746;138.604;2023-02-01T01:43:01;100936.49;;;22.39;36.24
77778;BME280;66966;-34.746;138.604;2023-02-01T01:45:29;100931.27;;;22.45;35.63
77778;BME280;66966;-34.746;138.604;2023-02-01T01:47:54;100927.19;;;22.28;36.10
77778;BME280;66966;-34.746;138.604;2023-02-01T01:50:22;100926.34;;;22.60;35.16
77778;BME280;66966;-34.746;138.604;2023-02-01T01:52:45;100917.94;;;22.72;34.49
77778;BME280;66966;-34.746;138.604;2023-02-01T01:55:09;100917.25;;;22.88;35.31
77778;BME280;66966;-34.746;138.604;2023-02-01T01:57:37;100914.64;;;22.62;35.08
77778;BME280;66966;-34.746;138.604;2023-02-01T02:00:04;100910.95;;;22.79;35.89
77778;BME280;66966;-34.746;138.604;2023-02-01T02:02:24;100912.33;;;22.87;35.21
77778;BME280;66966;-34.746;138.604;2023-02-01T02:04:49;100906.48;;;22.99;34.80
77778;BME280;66966;-34.746;138.604;2023-02-01T02:07:19;100897.22;;;22.82;35.45
77778;BME280;66966;-34.746;138.604;2023-02-01T02:09:40;100900.11;;;23.34;35.05
77778;BME280;66966;-34.746;138.604;2023-02-01T02:12:06;100893.03;;;22.91;34.65
77778;BME280;66966;-34.746;138.604;2023-02-01T02:14:31;100891.51;;;23.60;35.16
77778;BME280;66966;-34.746;138.604;2023-02-01T02:17:05;100885.11;;;23.33;34.13
77778;BME280;66966;-34.746;138.604;2023-02-01T02:19:37;100881.92;;;23.27;34.38
77778;BME280;66966;-34.746;138.604;2023-02-01T02:22:00;100875.43;;;23.62;33.88
77778;BME280;66966;-34.746;138.604;2023-02-01T02:24:31;100880.36;;;23.84;33.46
77778;BME280;66966;-34.746;138.604;2023-02-01T02:31:49;100873.35;;;24.38;33.06
77778;BME280;66966;-34.746;138.604;2023-02-01T02:33:59;100863.60;;;24.18;32.87
77778;BME280;66966;-34.746;138.604;2023-02-01T02:36:23;100862.38;;;24.33;33.50
77778;BME280;66966;-34.746;138.604;2023-02-01T02:38:49;100855.14;;;24.62;32.75
77778;BME280;66966;-34.746;138.604;2023-02-01T02:41:18;100850.29;;;24.87;32.86
77778;BME280;66966;-34.746;138.604;2023-02-01T02:43:42;100846.71;;;25.08;31.54
77778;BME280;66966;-34.746;138.604;2023-02-01T02:46:04;100845.89;;;25.33;30.95
77778;BME280;66966;-34.746;138.604;2023-02-01T02:48:29;100842.46;;;25.08;30.47
77778;BME280;66966;-34.746;138.604;2023-02-01T02:50:53;100840.55;;;24.96;31.00
77778;BME280;66966;-34.746;138.604;2023-02-01T02:53:18;100839.15;;;25.11;31.30
77778;BME280;66966;-34.746;138.604;2023-02-01T02:55:41;100839.37;;;25.08;31.43
77778;BME280;66966;-34.746;138.604;2023-02-01T02:58:06;100840.25;;;24.97;31.84
77778;BME280;66966;-34.746;138.604;2023-02-01T03:00:33;100841.88;;;25.05;32.11
77778;BME280;66966;-34.746;138.604;2023-02-01T03:02:56;100837.70;;;24.92;32.18
77778;BME280;66966;-34.746;138.604;2023-02-01T03:05:22;100834.09;;;24.78;32.62
77778;BME280;66966;-34.746;138.604;2023-02-01T03:07:57;100829.23;;;24.52;33.04
77778;BME280;66966;-34.746;138.604;2023-02-01T03:10:18;100827.82;;;24.52;32.90
77778;BME280;66966;-34.746;138.604;2023-02-01T03:12:40;100833.04;;;24.62;32.45
77778;BME280;66966;-34.746;138.604;2023-02-01T03:15:07;100836.31;;;24.48;32.59
77778;BME280;66966;-34.746;138.604;2023-02-01T03:17:33;100835.25;;;24.80;32.62
77778;BME280;66966;-34.746;138.604;2023-02-01T03:19:54;100834.20;;;24.89;32.02
77778;BME280;66966;-34.746;138.604;2023-02-01T03:22:20;100830.25;;;24.65;31.77
77778;BME280;66966;-34.746;138.604;2023-02-01T03:24:46;100830.51;;;24.83;31.83
77778;BME280;66966;-34.746;138.604;2023-02-01T03:27:15;100833.12;;;24.93;31.57
77778;BME280;66966;-34.746;138.604;2023-02-01T03:29:39;100833.89;;;25.06;31.37
77778;BME280;66966;-34.746;138.604;2023-02-01T03:31:59;100833.12;;;25.09;30.96
77778;BME280;66966;-34.746;138.604;2023-02-01T03:34:25;100832.63;;;25.42;30.78
77778;BME280;66966;-34.746;138.604;2023-02-01T03:36:52;100836.89;;;25.37;31.05
77778;BME280;66966;-34.746;138.604;2023-02-01T03:39:19;100831.78;;;25.02;30.79
77778;BME280;66966;-34.746;138.604;2023-02-01T03:41:44;100825.91;;;25.21;30.99
77778;BME280;66966;-34.746;138.604;2023-02-01T03:44:12;100826.32;;;24.80;31.44
77778;BME280;66966;-34.746;138.604;2023-02-01T03:46:34;100826.64;;;25.03;31.86
77778;BME280;66966;-34.746;138.604;2023-02-01T03:48:56;100826.65;;;24.81;32.10
77778;BME280;66966;-34.746;138.604;2023-02-01T03:51:21;100824.64;;;24.92;31.57
77778;BME280;66966;-34.746;138.604;2023-02-01T03:53:48;100820.88;;;25.16;31.78
77778;BME280;66966;-34.746;138.604;2023-02-01T03:56:12;100821.93;;;24.85;31.15
77778;BME280;66966;-34.746;138.604;2023-02-01T03:58:37;100818.50;;;25.24;31.12
77778;BME280;66966;-34.746;138.604;2023-02-01T04:01:02;100814.32;;;25.15;31.32
77778;BME280;66966;-34.746;138.604;2023-02-01T04:03:28;100814.10;;;25.32;29.99
77778;BME280;66966;-34.746;138.604;2023-02-01T04:05:54;100817.04;;;25.55;30.06
77778;BME280;66966;-34.746;138.604;2023-02-01T04:08:18;100811.68;;;25.25;28.93
77778;BME280;66966;-34.746;138.604;2023-02-01T04:10:44;100809.86;;;25.30;28.24
77778;BME280;66966;-34.746;138.604;2023-02-01T04:13:08;100804.14;;;25.32;27.93
77778;BME280;66966;-34.746;138.604;2023-02-01T04:15:34;100803.96;;;25.54;28.25
77778;BME280;66966;-34.746;138.604;2023-02-01T04:17:59;100808.02;;;25.35;27.64
77778;BME280;66966;-34.746;138.604;2023-02-01T04:20:24;100805.23;;;25.47;27.37
77778;BME280;66966;-34.746;138.604;2023-02-01T04:22:50;100805.22;;;25.27;27.69
77778;BME280;66966;-34.746;138.604;2023-02-01T04:25:15;100802.11;;;24.87;28.30
77778;BME280;66966;-34.746;138.604;2023-02-01T04:27:40;100798.44;;;24.95;28.71
77778;BME280;66966;-34.746;138.604;2023-02-01T04:30:07;100800.27;;;24.88;29.27
77778;BME280;66966;-34.746;138.604;2023-02-01T04:32:31;100800.17;;;24.40;29.99
77778;BME280;66966;-34.746;138.604;2023-02-01T04:34:56;100801.93;;;24.41;30.27
77778;BME280;66966;-34.746;138.604;2023-02-01T04:37:21;100802.62;;;24.41;31.11
77778;BME280;66966;-34.746;138.604;2023-02-01T04:39:46;100803.06;;;24.37;31.61
77778;BME280;66966;-34.746;138.604;2023-02-01T04:42:12;100797.75;;;24.47;32.24
77778;BME280;66966;-34.746;138.604;2023-02-01T04:44:37;100794.74;;;24.24;32.66
77778;BME280;66966;-34.746;138.604;2023-02-01T04:47:02;100795.13;;;24.31;32.74
77778;BME280;66966;-34.746;138.604;2023-02-01T04:49:27;100792.69;;;24.67;33.27
77778;BME280;66966;-34.746;138.604;2023-02-01T04:51:53;100789.74;;;25.18;32.12
77778;BME280;66966;-34.746;138.604;2023-02-01T04:54:18;100792.65;;;25.14;31.19
77778;BME280;66966;-34.746;138.604;2023-02-01T04:56:44;100793.04;;;25.43;30.20
77778;BME280;66966;-34.746;138.604;2023-02-01T04:59:10;100797.69;;;25.28;29.82
77778;BME280;66966;-34.746;138.604;2023-02-01T05:01:34;100795.02;;;25.45;29.97
77778;BME280;66966;-34.746;138.604;2023-02-01T05:03:59;100785.02;;;25.57;30.04
77778;BME280;66966;-34.746;138.604;2023-02-01T05:06:25;100785.92;;;25.48;30.05
77778;BME280;66966;-34.746;138.604;2023-02-01T05:08:50;100782.30;;;25.07;30.26
77778;BME280;66966;-34.746;138.604;2023-02-01T05:11:15;100774.61;;;24.96;30.21
77778;BME280;66966;-34.746;138.604;2023-02-01T05:13:40;100765.09;;;25.31;29.87
77778;BME280;66966;-34.746;138.604;2023-02-01T05:16:06;100764.41;;;25.45;29.96
77778;BME280;66966;-34.746;138.604;2023-02-01T05:18:31;100764.92;;;25.65;29.53
77778;BME280;66966;-34.746;138.604;2023-02-01T05:20:56;100762.18;;;25.79;29.71
77778;BME280;66966;-34.746;138.604;2023-02-01T05:23:21;100761.93;;;25.97;29.39
77778;BME280;66966;-34.746;138.604;2023-02-01T05:25:46;100762.00;;;26.19;29.17
77778;BME280;66966;-34.746;138.604;2023-02-01T05:28:12;100762.60;;;25.71;29.19
77778;BME280;66966;-34.746;138.604;2023-02-01T05:30:37;100762.92;;;25.95;29.34
77778;BME280;66966;-34.746;138.604;2023-02-01T05:33:02;100762.99;;;25.66;29.52
77778;BME280;66966;-34.746;138.604;2023-02-01T05:35:27;100761.82;;;25.62;29.63
77778;BME280;66966;-34.746;138.604;2023-02-01T05:37:52;100761.14;;;25.64;29.98
77778;BME280;66966;-34.746;138.604;2023-02-01T05:40:18;100761.63;;;25.48;30.30
77778;BME280;66966;-34.746;138.604;2023-02-01T05:42:43;100765.71;;;25.23;30.06
77778;BME280;66966;-34.746;138.604;2023-02-01T05:45:09;100762.42;;;25.41;30.08
77778;BME280;66966;-34.746;138.604;2023-02-01T05:47:33;100762.45;;;25.41;29.71
77778;BME280;66966;-34.746;138.604;2023-02-01T05:49:59;100765.05;;;25.66;29.84
77778;BME280;66966;-34.746;138.604;2023-02-01T05:52:24;100757.64;;;25.05;30.19
77778;BME280;66966;-34.746;138.604;2023-02-01T05:54:49;100760.15;;;25.27;30.07
77778;BME280;66966;-34.746;138.604;2023-02-01T05:57:15;100754.25;;;25.43;29.12
77778;BME280;66966;-34.746;138.604;2023-02-01T05:59:39;100749.39;;;25.50;29.42
77778;BME280;66966;-34.746;138.604;2023-02-01T06:02:05;100744.01;;;25.42;29.14
77778;BME280;66966;-34.746;138.604;2023-02-01T06:04:30;100737.06;;;25.34;29.28
77778;BME280;66966;-34.746;138.604;2023-02-01T06:06:55;100733.02;;;26.09;29.03
77778;BME280;66966;-34.746;138.604;2023-02-01T06:09:21;100733.40;;;26.01;28.25
77778;BME280;66966;-34.746;138.604;2023-02-01T06:11:46;100731.98;;;25.69;28.19
77778;BME280;66966;-34.746;138.604;2023-02-01T06:14:11;100734.10;;;25.57;27.73
77778;BME280;66966;-34.746;138.604;2023-02-01T06:16:36;100734.66;;;25.36;28.01
77778;BME280;66966;-34.746;138.604;2023-02-01T06:19:02;100731.25;;;25.31;28.14
77778;BME280;66966;-34.746;138.604;2023-02-01T06:21:27;100733.68;;;25.31;27.88
77778;BME280;66966;-34.746;138.604;2023-02-01T06:23:52;100731.15;;;25.48;27.76
77778;BME280;66966;-34.746;138.604;2023-02-01T06:26:17;100727.92;;;25.43;27.86
77778;BME280;66966;-34.746;138.604;2023-02-01T06:28:42;100725.51;;;25.33;28.19
77778;BME280;66966;-34.746;138.604;2023-02-01T06:31:08;100719.96;;;25.58;27.71
77778;BME280;66966;-34.746;138.604;2023-02-01T06:33:33;100723.47;;;25.67;27.45
77778;BME280;66966;-34.746;138.604;2023-02-01T06:35:59;100719.41;;;25.71;26.72
77778;BME280;66966;-34.746;138.604;2023-02-01T06:38:23;100716.02;;;25.71;26.23
77778;BME280;66966;-34.746;138.604;2023-02-01T06:40:53;100715.64;;;25.42;26.40
77778;BME280;66966;-34.746;138.604;2023-02-01T06:43:14;100711.80;;;25.29;27.11
77778;BME280;66966;-34.746;138.604;2023-02-01T06:45:39;100707.37;;;25.55;27.18
77778;BME280;66966;-34.746;138.604;2023-02-01T06:48:05;100705.74;;;25.62;26.94
77778;BME280;66966;-34.746;138.604;2023-02-01T06:50:30;100707.94;;;25.44;26.95
77778;BME280;66966;-34.746;138.604;2023-02-01T06:52:55;100705.32;;;25.07;27.50
77778;BME280;66966;-34.746;138.604;2023-02-01T06:55:20;100704.65;;;25.31;27.55
77778;BME280;66966;-34.746;138.604;2023-02-01T06:57:45;100705.81;;;25.36;27.57
77778;BME280;66966;-34.746;138.604;2023-02-01T07:00:11;100707.23;;;24.98;27.89
77778;BME280;66966;-34.746;138.604;2023-02-01T07:02:36;100708.48;;;25.15;27.81
77778;BME280;66966;-34.746;138.604;2023-02-01T07:05:01;100707.75;;;25.08;27.76
77778;BME280;66966;-34.746;138.604;2023-02-01T07:07:27;100706.45;;;25.00;27.82
77778;BME280;66966;-34.746;138.604;2023-02-01T07:09:52;100703.76;;;24.87;27.88
77778;BME280;66966;-34.746;138.604;2023-02-01T07:12:18;100704.70;;;24.93;27.79
77778;BME280;66966;-34.746;138.604;2023-02-01T07:14:42;100707.01;;;24.87;27.63
77778;BME280;66966;-34.746;138.604;2023-02-01T07:17:07;100703.89;;;25.05;27.72
77778;BME280;66966;-34.746;138.604;2023-02-01T07:19:33;100705.96;;;25.09;27.37
77778;BME280;66966;-34.746;138.604;2023-02-01T07:21:58;100703.61;;;25.20;27.53
77778;BME280;66966;-34.746;138.604;2023-02-01T07:24:23;100697.51;;;25.45;27.17
77778;BME280;66966;-34.746;138.604;2023-02-01T07:26:49;100690.11;;;25.65;26.35
77778;BME280;66966;-34.746;138.604;2023-02-01T07:29:14;100688.36;;;25.55;26.68
77778;BME280;66966;-34.746;138.604;2023-02-01T07:31:39;100681.48;;;25.79;26.37
77778;BME280;66966;-34.746;138.604;2023-02-01T07:34:04;100687.04;;;25.75;26.12
77778;BME280;66966;-34.746;138.604;2023-02-01T07:36:29;100680.03;;;25.53;26.18
77778;BME280;66966;-34.746;138.604;2023-02-01T07:38:55;100682.32;;;25.68;26.14
77778;BME280;66966;-34.746;138.604;2023-02-01T07:41:20;100681.11;;;25.80;25.84
77778;BME280;66966;-34.746;138.604;2023-02-01T07:43:45;100685.86;;;25.74;25.82
77778;BME280;66966;-34.746;138.604;2023-02-01T07:46:11;100682.13;;;25.50;25.79
77778;BME280;66966;-34.746;138.604;2023-02-01T07:48:36;100682.07;;;25.55;25.98
77778;BME280;66966;-34.746;138.604;2023-02-01T07:51:03;100680.81;;;25.71;26.02
77778;BME280;66966;-34.746;138.604;2023-02-01T07:53:26;100681.90;;;25.83;25.61
77778;BME280;66966;-34.746;138.604;2023-02-01T07:55:51;100681.01;;;25.90;24.89
77778;BME280;66966;-34.746;138.604;2023-02-01T07:58:17;100675.42;;;25.66;25.11
77778;BME280;66966;-34.746;138.604;2023-02-01T08:00:42;100676.00;;;26.49;25.18
77778;BME280;66966;-34.746;138.604;2023-02-01T08:03:07;100672.95;;;26.60;25.02
77778;BME280;66966;-34.746;138.604;2023-02-01T08:05:32;100681.64;;;26.71;24.86
77778;BME280;66966;-34.746;138.604;2023-02-01T08:07:57;100685.24;;;26.39;24.26
77778;BME280;66966;-34.746;138.604;2023-02-01T08:10:23;100683.88;;;26.47;23.42
77778;BME280;66966;-34.746;138.604;2023-02-01T08:12:48;100684.84;;;26.20;23.30
77778;BME280;66966;-34.746;138.604;2023-02-01T08:15:13;100689.98;;;26.50;23.46
77778;BME280;66966;-34.746;138.604;2023-02-01T08:17:38;100687.76;;;26.36;23.64
77778;BME280;66966;-34.746;138.604;2023-02-01T08:20:04;100691.15;;;26.49;24.02
77778;BME280;66966;-34.746;138.604;2023-02-01T08:22:33;100694.55;;;26.00;24.52
77778;BME280;66966;-34.746;138.604;2023-02-01T08:24:54;100701.23;;;25.94;25.11
77778;BME280;66966;-34.746;138.604;2023-02-01T08:27:20;100702.53;;;25.65;25.18
77778;BME280;66966;-34.746;138.604;2023-02-01T08:29:45;100706.71;;;25.19;25.62
77778;BME280;66966;-34.746;138.604;2023-02-01T08:32:09;100711.28;;;25.47;25.62
77778;BME280;66966;-34.746;138.604;2023-02-01T08:34:35;100710.24;;;25.11;25.37
77778;BME280;66966;-34.746;138.604;2023-02-01T08:37:00;100714.16;;;24.86;25.62
77778;BME280;66966;-34.746;138.604;2023-02-01T08:39:26;100725.73;;;24.30;26.30
77778;BME280;66966;-34.746;138.604;2023-02-01T08:41:50;100724.40;;;23.93;26.69
77778;BME280;66966;-34.746;138.604;2023-02-01T08:44:16;100729.98;;;23.94;26.77
77778;BME280;66966;-34.746;138.604;2023-02-01T08:46:41;100736.25;;;24.00;26.99
77778;BME280;66966;-34.746;138.604;2023-02-01T08:49:06;100736.57;;;23.54;27.15
77778;BME280;66966;-34.746;138.604;2023-02-01T08:51:32;100732.75;;;23.76;27.51
77778;BME280;66966;-34.746;138.604;2023-02-01T08:53:57;100737.39;;;23.56;27.59
77778;BME280;66966;-34.746;138.604;2023-02-01T08:56:22;100737.92;;;23.38;28.11
77778;BME280;66966;-34.746;138.604;2023-02-01T08:58:48;100738.84;;;23.32;28.07
77778;BME280;66966;-34.746;138.604;2023-02-01T09:01:14;100741.07;;;23.77;27.91
77778;BME280;66966;-34.746;138.604;2023-02-01T09:03:38;100745.33;;;23.35;27.81
77778;BME280;66966;-34.746;138.604;2023-02-01T09:06:05;100746.59;;;23.23;27.91
77778;BME280;66966;-34.746;138.604;2023-02-01T09:08:29;100747.31;;;23.27;27.76
77778;BME280;66966;-34.746;138.604;2023-02-01T09:10:58;100747.84;;;23.55;28.06
77778;BME280;66966;-34.746;138.604;2023-02-01T09:13:20;100745.01;;;23.10;28.25
77778;BME280;66966;-34.746;138.604;2023-02-01T09:15:45;100748.33;;;23.18;28.21
77778;BME280;66966;-34.746;138.604;2023-02-01T09:18:10;100754.67;;;23.10;28.25
77778;BME280;66966;-34.746;138.604;2023-02-01T09:20:37;100752.79;;;23.37;28.09
77778;BME280;66966;-34.746;138.604;2023-02-01T09:23:01;100749.19;;;22.94;28.39
77778;BME280;66966;-34.746;138.604;2023-02-01T09:25:27;100749.07;;;22.90;28.75
77778;BME280;66966;-34.746;138.604;2023-02-01T09:27:52;100747.95;;;22.82;28.82
77778;BME280;66966;-34.746;138.604;2023-02-01T09:30:17;100751.09;;;22.82;28.77
77778;BME280;66966;-34.746;138.604;2023-02-01T09:32:42;100751.10;;;22.46;28.92
77778;BME280;66966;-34.746;138.604;2023-02-01T09:35:08;100750.78;;;22.73;28.90
77778;BME280;66966;-34.746;138.604;2023-02-01T09:37:33;100750.28;;;22.77;28.70
77778;BME280;66966;-34.746;138.604;2023-02-01T09:39:58;100750.12;;;22.52;28.77
77778;BME280;66966;-34.746;138.604;2023-02-01T09:44:58;100757.72;;;22.85;28.60
77778;BME280;66966;-34.746;138.604;2023-02-01T09:47:17;100758.94;;;22.62;28.39
77778;BME280;66966;-34.746;138.604;2023-02-01T09:49:47;100757.28;;;22.87;28.38
77778;BME280;66966;-34.746;138.604;2023-02-01T09:52:08;100760.61;;;22.74;28.10
77778;BME280;66966;-34.746;138.604;2023-02-01T09:54:39;100759.71;;;22.82;28.35
77778;BME280;66966;-34.746;138.604;2023-02-01T09:56:58;100758.83;;;22.48;28.38
77778;BME280;66966;-34.746;138.604;2023-02-01T09:59:30;100760.48;;;22.79;28.19
77778;BME280;66966;-34.746;138.604;2023-02-01T10:01:47;100761.33;;;22.72;28.26
77778;BME280;66966;-34.746;138.604;2023-02-01T10:04:14;100761.89;;;22.45;28.25
77778;BME280;66966;-34.746;138.604;2023-02-01T10:06:46;100766.21;;;22.52;28.43
77778;BME280;66966;-34.746;138.604;2023-02-01T10:11:35;100763.03;;;22.40;28.57
77778;BME280;66966;-34.746;138.604;2023-02-01T10:14:00;100766.64;;;22.37;28.72
77778;BME280;66966;-34.746;138.604;2023-02-01T10:16:26;100765.94;;;22.37;28.76
77778;BME280;66966;-34.746;138.604;2023-02-01T10:18:54;100773.86;;;22.20;28.77
77778;BME280;66966;-34.746;138.604;2023-02-01T10:21:19;100779.31;;;22.25;28.65
77778;BME280;66966;-34.746;138.604;2023-02-01T10:26:08;100787.22;;;22.61;28.39
77778;BME280;66966;-34.746;138.604;2023-02-01T10:28:26;100787.85;;;22.18;28.59
77778;BME280;66966;-34.746;138.604;2023-02-01T10:30:54;100792.28;;;22.09;28.80
77778;BME280;66966;-34.746;138.604;2023-02-01T10:33:18;100791.43;;;22.20;29.00
77778;BME280;66966;-34.746;138.604;2023-02-01T10:35:43;100785.59;;;21.81;29.17
77778;BME280;66966;-34.746;138.604;2023-02-01T10:38:12;100795.01;;;21.84;29.13
77778;BME280;66966;-34.746;138.604;2023-02-01T10:40:33;100793.96;;;22.02;29.20
77778;BME280;66966;-34.746;138.604;2023-02-01T10:43:00;100791.49;;;22.03;29.17
77778;BME280;66966;-34.746;138.604;2023-02-01T10:45:27;100791.92;;;21.73;29.24
77778;BME280;66966;-34.746;138.604;2023-02-01T10:47:51;100787.13;;;22.22;29.14
77778;BME280;66966;-34.746;138.604;2023-02-01T10:50:19;100785.02;;;21.85;29.31
77778;BME280;66966;-34.746;138.604;2023-02-01T10:52:42;100777.25;;;21.95;29.22
77778;BME280;66966;-34.746;138.604;2023-02-01T10:57:30;100773.15;;;21.83;29.09
77778;BME280;66966;-34.746;138.604;2023-02-01T10:59:56;100779.78;;;21.82;29.11
77778;BME280;66966;-34.746;138.604;2023-02-01T11:02:26;100780.49;;;21.85;28.93
77778;BME280;66966;-34.746;138.604;2023-02-01T11:04:46;100777.70;;;21.83;28.80
77778;BME280;66966;-34.746;138.604;2023-02-01T11:07:19;100777.57;;;22.01;28.95
77778;BME280;66966;-34.746;138.604;2023-02-01T11:09:41;100774.71;;;22.28;29.00
77778;BME280;66966;-34.746;138.604;2023-02-01T11:12:03;100777.33;;;22.01;28.82
77778;BME280;66966;-34.746;138.604;2023-02-01T11:14:35;100775.96;;;21.69;28.81
77778;BME280;66966;-34.746;138.604;2023-02-01T11:16:54;100770.64;;;21.95;28.76
77778;BME280;66966;-34.746;138.604;2023-02-01T11:19:19;100775.76;;;21.59;28.78
77778;BME280;66966;-34.746;138.604;2023-02-01T11:21:44;100781.77;;;21.60;28.86
77778;BME280;66966;-34.746;138.604;2023-02-01T11:24:19;100783.97;;;21.61;28.55
77778;BME280;66966;-34.746;138.604;2023-02-01T11:26:40;100781.77;;;21.59;28.44
77778;BME280;66966;-34.746;138.604;2023-02-01T11:29:03;100777.86;;;21.79;28.38
77778;BME280;66966;-34.746;138.604;2023-02-01T11:31:26;100777.33;;;21.51;28.22
77778;BME280;66966;-34.746;138.604;2023-02-01T11:33:53;100780.50;;;21.57;28.19
77778;BME280;66966;-34.746;138.604;2023-02-01T11:36:18;100784.87;;;21.68;28.03
77778;BME280;66966;-34.746;138.604;2023-02-01T11:38:51;100788.95;;;21.62;28.35
77778;BME280;66966;-34.746;138.604;2023-02-01T11:41:12;100791.36;;;21.26;28.41
77778;BME280;66966;-34.746;138.604;2023-02-01T11:43:32;100792.84;;;21.20;28.55
77778;BME280;66966;-34.746;138.604;2023-02-01T11:46:01;100791.91;;;21.20;28.50
77778;BME280;66966;-34.746;138.604;2023-02-01T11:48:25;100788.47;;;21.15;28.52
77778;BME280;66966;-34.746;138.604;2023-02-01T11:50:53;100789.34;;;21.15;28.43
77778;BME280;66966;-34.746;138.604;2023-02-01T11:53:26;100789.16;;;21.00;28.55
77778;BME280;66966;-34.746;138.604;2023-02-01T11:55:50;100789.94;;;21.10;28.79
77778;BME280;66966;-34.746;138.604;2023-02-01T11:58:15;100785.94;;;20.91;28.91
77778;BME280;66966;-34.746;138.604;2023-02-01T12:00:42;100787.62;;;21.20;28.94
77778;BME280;66966;-34.746;138.604;2023-02-01T12:05:28;100789.74;;;21.01;29.04
77778;BME280;66966;-34.746;138.604;2023-02-01T12:07:58;100787.22;;;21.06;29.00
77778;BME280;66966;-34.746;138.604;2023-02-01T12:10:23;100786.73;;;21.31;29.08
77778;BME280;66966;-34.746;138.604;2023-02-01T12:12:43;100784.92;;;21.09;29.22
77778;BME280;66966;-34.746;138.604;2023-02-01T12:15:15;100784.96;;;21.33;29.17
77778;BME280;66966;-34.746;138.604;2023-02-01T12:20:01;100792.13;;;21.43;29.32
77778;BME280;66966;-34.746;138.604;2023-02-01T12:22:29;100790.20;;;21.27;29.37
77778;BME280;66966;-34.746;138.604;2023-02-01T12:24:56;100782.35;;;21.35;29.39
77778;BME280;66966;-34.746;138.604;2023-02-01T12:29:47;100771.57;;;21.39;29.15
77778;BME280;66966;-34.746;138.604;2023-02-01T12:32:13;100768.64;;;21.39;29.28